Portada
METAR-TAF:

METAR-TAF

Aeropuertos :

Kélibia, Túnez

latitud: 36-51N, longitud: 011-05E, altitud: 29 m

Observación

El informe se hizo hace 1 hora y 1 minutos, a las 13:00 UTC
Viento 10 kt del oeste-noroeste, variando entre sur-suroeste y norte
Temperatura 27°C
Humedad 45%
Presión 1018 hPa
Visibilidad 10 km o más
sin nubes por debajo de 1500 m y sin presencia de cumulonimbus.

METAR: DTTL 131300Z 29010KT 200V350 CAVOK 27/14 Q1018

Hora: 15:01 (14:01 UTC)


TAF: falta

Observaciones y pronósticos meteorológicos de más de 4000 aeropuertos (mensajes METAR y TAF).

Los puntos amarillos y rojos representan las estaciones disponibles.

Ponga el ratón en el punto deseado para ver el nombre de la estación.

Haga clic para ver las observaciones y los pronósticos meteorológicos.

Para cambiar el mapa : haga clic en los botones verdes con una cruz de color negro para hacer un zoom, en el botón verde con un guión para alejar o en las flechas verdes para mapas adyacentes.


METAR-TAF: